createdAt,value
2022-08-21T00:00:48.192Z,17.70
2022-08-21T00:03:15.257Z,17.60
2022-08-21T00:05:48.435Z,17.60
2022-08-21T00:08:15.414Z,17.60
2022-08-21T00:10:43.646Z,17.60
2022-08-21T00:13:10.830Z,17.60
2022-08-21T00:15:38.306Z,17.50
2022-08-21T00:18:06.235Z,17.50
2022-08-21T00:20:33.746Z,17.40
2022-08-21T00:23:00.678Z,17.40
2022-08-21T00:25:27.879Z,17.40
2022-08-21T00:27:55.594Z,17.30
2022-08-21T00:30:23.671Z,17.30
2022-08-21T00:32:52.131Z,17.20
2022-08-21T00:35:20.412Z,17.20
2022-08-21T00:37:47.717Z,17.20
2022-08-21T00:40:18.632Z,17.20
2022-08-21T00:42:53.169Z,17.20
2022-08-21T00:45:22.463Z,17.10
2022-08-21T00:47:49.952Z,17.20
2022-08-21T00:50:22.006Z,17.10
2022-08-21T00:52:50.840Z,17.10
2022-08-21T00:55:17.804Z,17.10
2022-08-21T00:57:47.072Z,17.10
2022-08-21T01:00:19.741Z,17.10
2022-08-21T01:02:47.014Z,17.10
2022-08-21T01:05:13.940Z,17.10
2022-08-21T01:07:41.657Z,17.10
2022-08-21T01:10:09.119Z,17.00
2022-08-21T01:12:54.290Z,17.00
2022-08-21T01:15:21.478Z,17.00
2022-08-21T01:17:50.064Z,17.00
2022-08-21T01:20:17.576Z,16.90
2022-08-21T01:22:44.636Z,17.00
2022-08-21T01:25:12.939Z,16.90
2022-08-21T01:27:40.093Z,16.90
2022-08-21T01:30:12.334Z,16.90
2022-08-21T01:32:39.343Z,16.80
2022-08-21T01:35:06.999Z,16.80
2022-08-21T01:37:33.999Z,16.80
2022-08-21T01:40:00.952Z,16.80
2022-08-21T01:42:28.029Z,16.80
2022-08-21T01:44:56.261Z,16.80
2022-08-21T01:47:23.417Z,16.70
2022-08-21T01:49:50.481Z,16.70
2022-08-21T01:52:17.703Z,16.70
2022-08-21T01:54:44.670Z,16.70
2022-08-21T01:57:12.113Z,16.70
2022-08-21T01:59:39.126Z,16.70
2022-08-21T02:02:06.440Z,16.70
2022-08-21T02:04:33.695Z,16.70
2022-08-21T02:07:01.511Z,16.70
2022-08-21T02:09:29.446Z,16.70
2022-08-21T02:11:57.494Z,16.70
2022-08-21T02:14:31.950Z,16.70
2022-08-21T02:17:09.533Z,16.60
2022-08-21T02:19:40.464Z,16.60
2022-08-21T02:22:08.967Z,16.60
2022-08-21T02:24:36.316Z,16.60
2022-08-21T02:27:05.600Z,16.60
2022-08-21T02:29:32.566Z,16.60
2022-08-21T02:32:00.091Z,16.70
2022-08-21T02:34:29.395Z,16.70
2022-08-21T02:36:59.765Z,16.70
2022-08-21T02:39:27.838Z,16.70
2022-08-21T02:41:54.808Z,16.70
2022-08-21T02:44:21.749Z,16.70
2022-08-21T02:47:01.586Z,16.70
2022-08-21T02:49:28.655Z,16.70
2022-08-21T02:51:55.757Z,16.70
2022-08-21T02:54:22.662Z,16.70
2022-08-21T02:56:49.564Z,16.70
2022-08-21T02:59:16.458Z,16.70
2022-08-21T03:01:43.579Z,16.70
2022-08-21T03:04:10.534Z,16.70
2022-08-21T03:06:37.551Z,16.70
2022-08-21T03:09:04.666Z,16.70
2022-08-21T03:11:31.663Z,16.60
2022-08-21T03:13:58.572Z,16.70
2022-08-21T03:16:25.494Z,16.60
2022-08-21T03:18:52.633Z,16.60
2022-08-21T03:21:20.097Z,16.60
2022-08-21T03:23:47.617Z,16.60
2022-08-21T03:26:15.246Z,16.60
2022-08-21T03:28:43.092Z,16.70
2022-08-21T03:31:10.083Z,16.70
2022-08-21T03:33:37.000Z,16.70
2022-08-21T03:36:08.234Z,16.70
2022-08-21T03:38:35.433Z,16.60
2022-08-21T03:41:02.558Z,16.60
2022-08-21T03:43:32.229Z,16.50
2022-08-21T03:46:01.567Z,16.60
2022-08-21T03:48:28.467Z,16.60
2022-08-21T03:50:55.602Z,16.70
2022-08-21T03:53:22.704Z,16.60
2022-08-21T03:55:50.582Z,16.50
2022-08-21T03:58:18.666Z,16.50
2022-08-21T04:00:47.134Z,16.50
2022-08-21T04:03:14.074Z,16.50
2022-08-21T04:05:42.044Z,16.50
2022-08-21T04:08:09.229Z,16.50
2022-08-21T04:10:36.916Z,16.40
2022-08-21T04:13:04.605Z,16.40
2022-08-21T04:15:31.569Z,16.40
2022-08-21T04:17:58.467Z,16.30
2022-08-21T04:20:26.062Z,16.30
2022-08-21T04:22:53.168Z,16.30
2022-08-21T04:25:21.387Z,16.30
2022-08-21T04:27:48.658Z,16.40
2022-08-21T04:30:15.957Z,16.40
2022-08-21T04:32:50.155Z,16.40
2022-08-21T04:35:18.802Z,16.40
2022-08-21T04:37:45.851Z,16.30
2022-08-21T04:40:14.157Z,16.20
2022-08-21T04:42:52.045Z,16.20
2022-08-21T04:45:29.491Z,16.10
2022-08-21T04:47:59.001Z,16.00
2022-08-21T04:51:04.230Z,15.90
2022-08-21T04:53:38.067Z,15.80
2022-08-21T04:56:23.059Z,15.90
2022-08-21T04:58:50.617Z,15.90
2022-08-21T05:01:20.107Z,15.80
2022-08-21T05:03:47.983Z,15.90
2022-08-21T05:06:15.058Z,16.00
2022-08-21T05:08:42.161Z,16.00
2022-08-21T05:11:09.090Z,16.00
2022-08-21T05:13:36.600Z,15.90
2022-08-21T05:16:04.044Z,15.90
2022-08-21T05:18:31.139Z,15.90
2022-08-21T05:20:58.149Z,16.00
2022-08-21T05:23:25.949Z,15.90
2022-08-21T05:25:53.786Z,16.00
2022-08-21T05:28:20.850Z,16.10
2022-08-21T05:30:48.254Z,16.30
2022-08-21T05:33:15.345Z,16.30
2022-08-21T05:35:42.295Z,16.40
2022-08-21T05:38:16.663Z,16.40
2022-08-21T05:40:47.208Z,16.50
2022-08-21T05:43:14.362Z,16.60
2022-08-21T05:45:43.986Z,16.70
2022-08-21T05:48:20.518Z,16.70
2022-08-21T05:50:48.136Z,16.70
2022-08-21T05:53:15.554Z,16.80
2022-08-21T05:55:45.580Z,16.80
2022-08-21T05:58:18.517Z,16.90
2022-08-21T06:00:48.653Z,16.90
2022-08-21T06:03:22.201Z,17.00
2022-08-21T06:05:49.158Z,17.00
2022-08-21T06:08:17.283Z,17.10
2022-08-21T06:10:44.844Z,17.10
2022-08-21T06:13:12.060Z,17.10
2022-08-21T06:15:39.215Z,17.10
2022-08-21T06:18:06.416Z,17.10
2022-08-21T06:20:33.797Z,17.20
2022-08-21T06:23:00.884Z,17.30
2022-08-21T06:25:28.124Z,17.40
2022-08-21T06:28:00.977Z,17.40
2022-08-21T06:30:28.454Z,17.60
2022-08-21T06:32:55.402Z,17.80
2022-08-21T06:35:22.495Z,17.80
2022-08-21T06:37:49.628Z,17.90
2022-08-21T06:40:16.738Z,17.90
2022-08-21T06:42:45.720Z,17.90
2022-08-21T06:45:14.559Z,18.00
2022-08-21T06:47:41.563Z,18.10
2022-08-21T06:50:09.090Z,18.20
2022-08-21T06:52:37.017Z,18.40
2022-08-21T06:55:08.151Z,18.60
2022-08-21T06:57:35.156Z,18.70
2022-08-21T07:00:03.925Z,18.80
2022-08-21T07:02:30.864Z,18.90
2022-08-21T07:04:57.809Z,19.00
2022-08-21T07:07:24.701Z,18.90
2022-08-21T07:09:51.786Z,18.80
2022-08-21T07:12:18.799Z,18.90
2022-08-21T07:14:45.757Z,18.90
2022-08-21T07:17:12.683Z,19.00
2022-08-21T07:19:39.809Z,19.00
2022-08-21T07:22:07.321Z,19.10
2022-08-21T07:24:34.461Z,19.00
2022-08-21T07:27:01.422Z,19.20
2022-08-21T07:29:28.382Z,19.00
2022-08-21T07:31:55.494Z,19.00
2022-08-21T07:34:22.480Z,18.90
2022-08-21T07:36:49.435Z,18.90
2022-08-21T07:39:16.411Z,18.90
2022-08-21T07:41:43.305Z,18.90
2022-08-21T07:44:10.355Z,19.00
2022-08-21T07:46:39.645Z,18.90
2022-08-21T07:49:06.594Z,19.00
2022-08-21T07:51:34.678Z,19.10
2022-08-21T07:54:01.927Z,19.20
2022-08-21T07:56:29.178Z,19.10
2022-08-21T07:58:57.415Z,19.20
2022-08-21T08:01:24.910Z,19.30
2022-08-21T08:03:52.327Z,19.30
2022-08-21T08:06:20.239Z,19.50
2022-08-21T08:08:47.486Z,19.80
2022-08-21T08:11:17.409Z,19.80
2022-08-21T08:13:46.361Z,19.90
2022-08-21T08:16:13.652Z,19.90
2022-08-21T08:18:40.792Z,19.90
2022-08-21T08:21:07.981Z,20.00
2022-08-21T08:23:35.054Z,20.00
2022-08-21T08:26:03.759Z,19.80
2022-08-21T08:28:32.966Z,19.90
2022-08-21T08:31:00.714Z,19.90
2022-08-21T08:33:27.779Z,19.80
2022-08-21T08:35:54.769Z,19.70
2022-08-21T08:38:24.414Z,19.70
2022-08-21T08:41:03.782Z,19.70
2022-08-21T08:43:31.124Z,19.80
2022-08-21T08:45:59.013Z,19.90
2022-08-21T08:48:32.009Z,20.10
2022-08-21T08:50:59.166Z,20.20
2022-08-21T08:53:33.217Z,20.40
2022-08-21T08:56:01.392Z,20.60
2022-08-21T08:58:31.422Z,20.50
2022-08-21T09:00:58.535Z,20.50
2022-08-21T09:03:25.905Z,20.60
2022-08-21T09:06:04.910Z,20.80
2022-08-21T09:08:50.641Z,20.70
2022-08-21T09:11:33.737Z,21.00
2022-08-21T09:14:31.871Z,21.20
2022-08-21T09:17:13.098Z,21.50
2022-08-21T09:20:07.690Z,21.50
2022-08-21T09:23:01.983Z,21.90
2022-08-21T09:25:32.075Z,22.40
2022-08-21T09:27:59.165Z,22.30
2022-08-21T09:30:31.769Z,22.00
2022-08-21T09:32:59.097Z,22.00
2022-08-21T09:35:26.376Z,22.10
2022-08-21T09:38:06.570Z,22.30
2022-08-21T09:40:36.359Z,22.60
2022-08-21T09:43:15.908Z,22.80
2022-08-21T09:45:43.485Z,23.00
2022-08-21T09:48:16.009Z,22.80
2022-08-21T09:50:43.573Z,23.00
2022-08-21T09:53:25.219Z,23.10
2022-08-21T09:56:13.542Z,23.50
2022-08-21T09:58:42.065Z,23.50
2022-08-21T10:01:14.554Z,23.40
2022-08-21T10:03:41.625Z,23.90
2022-08-21T10:06:10.731Z,23.90
2022-08-21T10:08:41.612Z,23.90
2022-08-21T10:11:16.843Z,23.90
2022-08-21T10:13:55.121Z,23.90
2022-08-21T10:16:38.667Z,23.90
2022-08-21T10:19:23.791Z,23.80
2022-08-21T10:22:17.986Z,23.60
2022-08-21T10:25:02.505Z,23.60
2022-08-21T10:27:39.033Z,23.90
2022-08-21T10:30:14.645Z,23.70
2022-08-21T10:32:59.929Z,24.10
2022-08-21T10:35:31.764Z,23.80
2022-08-21T10:38:39.374Z,23.60
2022-08-21T10:41:15.923Z,23.30
2022-08-21T10:43:42.909Z,23.30
2022-08-21T10:46:21.598Z,23.20
2022-08-21T10:48:59.642Z,23.10
2022-08-21T10:51:29.116Z,23.30
2022-08-21T10:54:06.801Z,23.20
2022-08-21T10:56:37.194Z,23.10
2022-08-21T10:59:26.738Z,23.20
2022-08-21T11:02:08.698Z,22.90
2022-08-21T11:04:49.198Z,23.00
2022-08-21T11:07:36.421Z,23.00
2022-08-21T11:10:17.706Z,22.90
2022-08-21T11:12:51.696Z,23.00
2022-08-21T11:15:35.682Z,23.20
2022-08-21T11:18:28.021Z,23.20
2022-08-21T11:21:04.000Z,23.20
2022-08-21T11:23:39.391Z,23.20
2022-08-21T11:26:26.275Z,22.90
2022-08-21T11:28:55.814Z,22.70
2022-08-21T11:31:33.099Z,22.80
2022-08-21T11:34:30.614Z,22.80
2022-08-21T11:37:26.549Z,22.70
2022-08-21T11:40:26.325Z,22.60
2022-08-21T11:43:19.428Z,22.50
2022-08-21T11:45:53.164Z,22.60
2022-08-21T11:48:23.371Z,22.60
2022-08-21T11:50:50.302Z,22.60
2022-08-21T11:53:39.295Z,22.50
2022-08-21T11:56:10.427Z,22.60
2022-08-21T11:58:52.654Z,22.80
2022-08-21T12:01:36.930Z,22.90
2022-08-21T12:04:22.554Z,23.00
2022-08-21T12:06:53.257Z,23.10
2022-08-21T12:09:26.390Z,23.20
2022-08-21T12:12:03.950Z,23.30
2022-08-21T12:14:47.397Z,23.00
2022-08-21T12:17:25.412Z,23.20
2022-08-21T12:20:00.102Z,23.10
2022-08-21T12:22:41.688Z,23.10
2022-08-21T12:25:11.531Z,23.20
2022-08-21T12:27:48.602Z,23.20
2022-08-21T12:30:27.646Z,23.30
2022-08-21T12:33:31.773Z,23.10
2022-08-21T12:36:13.894Z,23.10
2022-08-21T12:38:54.143Z,23.20
2022-08-21T12:41:43.111Z,23.50
2022-08-21T12:44:18.479Z,23.60
2022-08-21T12:47:07.856Z,23.80
2022-08-21T12:49:45.106Z,24.10
2022-08-21T12:52:24.144Z,24.00
2022-08-21T12:54:51.270Z,23.90
2022-08-21T12:57:25.699Z,23.90
2022-08-21T12:59:57.265Z,23.60
2022-08-21T13:02:27.878Z,23.90
2022-08-21T13:04:56.521Z,23.90
2022-08-21T13:07:31.531Z,24.00
2022-08-21T13:10:04.406Z,24.20
2022-08-21T13:12:32.417Z,24.30
2022-08-21T13:15:02.348Z,24.70
2022-08-21T13:17:32.666Z,24.60
2022-08-21T13:20:25.508Z,24.70
2022-08-21T13:22:52.609Z,24.50
2022-08-21T13:25:21.639Z,24.50
2022-08-21T13:28:12.538Z,24.50
2022-08-21T13:30:50.925Z,24.70
2022-08-21T13:33:21.406Z,24.80
2022-08-21T13:35:57.654Z,25.00
2022-08-21T13:38:28.174Z,24.90
2022-08-21T13:40:59.710Z,24.80
2022-08-21T13:43:29.681Z,24.80
2022-08-21T13:45:56.865Z,24.40
2022-08-21T13:48:26.230Z,24.00
2022-08-21T13:50:53.296Z,24.30
2022-08-21T13:53:29.068Z,24.50
2022-08-21T13:56:00.410Z,24.60
2022-08-21T13:58:32.554Z,24.50
2022-08-21T14:01:00.530Z,24.60
2022-08-21T14:03:39.637Z,24.40
2022-08-21T14:06:23.431Z,24.60
2022-08-21T14:09:02.233Z,24.50
2022-08-21T14:11:33.222Z,24.40
2022-08-21T14:14:13.513Z,24.30
2022-08-21T14:17:01.986Z,24.30
2022-08-21T14:19:48.963Z,24.20
2022-08-21T14:22:40.879Z,24.30
2022-08-21T14:25:09.161Z,24.20
2022-08-21T14:27:38.013Z,24.30
2022-08-21T14:30:14.502Z,24.30
2022-08-21T14:32:44.916Z,24.40
2022-08-21T14:35:13.581Z,24.30
2022-08-21T14:37:44.300Z,24.20
2022-08-21T14:40:12.527Z,24.20
2022-08-21T14:42:43.833Z,24.30
2022-08-21T14:45:24.863Z,24.20
2022-08-21T14:47:55.662Z,24.20
2022-08-21T14:50:22.761Z,24.10
2022-08-21T14:52:50.271Z,24.20
2022-08-21T14:55:18.179Z,24.30
2022-08-21T14:57:46.870Z,24.30
2022-08-21T15:00:15.252Z,24.30
2022-08-21T15:02:42.228Z,24.30
2022-08-21T15:05:09.359Z,24.30
2022-08-21T15:07:36.391Z,24.10
2022-08-21T15:10:03.642Z,24.20
2022-08-21T15:12:30.562Z,24.20
2022-08-21T15:15:07.548Z,24.10
2022-08-21T15:17:35.055Z,24.10
2022-08-21T15:20:01.954Z,24.10
2022-08-21T15:22:29.022Z,24.20
2022-08-21T15:24:55.952Z,24.30
2022-08-21T15:27:22.992Z,24.40
2022-08-21T15:29:49.977Z,24.50
2022-08-21T15:32:23.483Z,24.50
2022-08-21T15:34:54.362Z,24.50
2022-08-21T15:37:21.452Z,24.50
2022-08-21T15:39:53.818Z,24.70
2022-08-21T15:42:21.470Z,24.70
2022-08-21T15:44:48.597Z,24.70
2022-08-21T15:47:22.633Z,24.60
2022-08-21T15:49:49.640Z,24.50
2022-08-21T15:52:17.946Z,24.30
2022-08-21T15:54:45.062Z,24.20
2022-08-21T15:57:14.036Z,24.10
2022-08-21T15:59:45.719Z,24.00
2022-08-21T16:02:32.913Z,24.00
2022-08-21T16:05:00.156Z,24.00
2022-08-21T16:07:27.124Z,24.00
2022-08-21T16:09:54.074Z,24.10
2022-08-21T16:12:26.278Z,24.10
2022-08-21T16:14:53.741Z,24.10
2022-08-21T16:17:22.026Z,24.20
2022-08-21T16:19:49.113Z,24.30
2022-08-21T16:22:16.074Z,24.30
2022-08-21T16:24:43.026Z,24.40
2022-08-21T16:27:10.001Z,24.50
2022-08-21T16:29:37.806Z,24.50
2022-08-21T16:32:06.601Z,24.60
2022-08-21T16:34:34.161Z,24.60
2022-08-21T16:37:01.146Z,24.60
2022-08-21T16:39:28.326Z,24.50
2022-08-21T16:41:55.253Z,24.50
2022-08-21T16:44:22.205Z,24.50
2022-08-21T16:46:49.931Z,24.50
2022-08-21T16:49:16.977Z,24.60
2022-08-21T16:51:44.011Z,24.50
2022-08-21T16:54:11.687Z,24.60
2022-08-21T16:56:40.381Z,24.50
2022-08-21T16:59:08.358Z,24.30
2022-08-21T17:01:35.379Z,24.20
2022-08-21T17:04:03.452Z,24.30
2022-08-21T17:06:31.276Z,24.20
2022-08-21T17:08:59.661Z,24.10
2022-08-21T17:11:38.479Z,23.90
2022-08-21T17:14:13.775Z,23.80
2022-08-21T17:16:42.205Z,23.90
2022-08-21T17:19:09.213Z,23.80
2022-08-21T17:21:36.190Z,23.80
2022-08-21T17:24:03.471Z,23.80
2022-08-21T17:26:30.436Z,23.90
2022-08-21T17:28:57.429Z,23.90
2022-08-21T17:31:24.586Z,23.80
2022-08-21T17:33:53.386Z,23.70
2022-08-21T17:36:21.818Z,23.70
2022-08-21T17:38:48.832Z,23.70
2022-08-21T17:41:16.201Z,23.70
2022-08-21T17:43:43.268Z,23.60
2022-08-21T17:46:12.142Z,23.70
2022-08-21T17:48:39.074Z,23.70
2022-08-21T17:51:09.506Z,23.70
2022-08-21T17:53:41.223Z,23.70
2022-08-21T17:56:08.167Z,23.50
2022-08-21T17:58:35.374Z,23.40
2022-08-21T18:01:05.857Z,23.40
2022-08-21T18:03:38.488Z,23.30
2022-08-21T18:06:05.841Z,23.30
2022-08-21T18:08:33.208Z,23.20
2022-08-21T18:11:00.249Z,23.00
2022-08-21T18:13:30.784Z,23.00
2022-08-21T18:15:57.914Z,22.90
2022-08-21T18:18:25.446Z,22.90
2022-08-21T18:20:53.654Z,22.80
2022-08-21T18:23:20.630Z,22.80
2022-08-21T18:26:07.615Z,22.70
2022-08-21T18:28:35.999Z,22.60
2022-08-21T18:31:02.947Z,22.50
2022-08-21T18:33:29.986Z,22.50
2022-08-21T18:35:56.932Z,22.50
2022-08-21T18:38:24.993Z,22.50
2022-08-21T18:40:55.919Z,22.40
2022-08-21T18:43:23.137Z,22.30
2022-08-21T18:45:50.153Z,22.20
2022-08-21T18:48:17.931Z,22.10
2022-08-21T18:50:45.677Z,22.00
2022-08-21T18:53:18.042Z,22.00
2022-08-21T18:55:54.834Z,22.00
2022-08-21T18:58:24.201Z,22.00
2022-08-21T19:00:51.586Z,22.00
2022-08-21T19:03:23.938Z,22.00
2022-08-21T19:05:52.626Z,21.90
2022-08-21T19:08:21.409Z,21.90
2022-08-21T19:10:49.852Z,21.80
2022-08-21T19:13:18.660Z,21.80
2022-08-21T19:15:49.891Z,21.70
2022-08-21T19:18:18.073Z,21.60
2022-08-21T19:20:47.421Z,21.60
2022-08-21T19:23:15.820Z,21.50
2022-08-21T19:25:45.102Z,21.50
2022-08-21T19:28:15.794Z,21.50
2022-08-21T19:30:55.366Z,21.50
2022-08-21T19:33:29.550Z,21.40
2022-08-21T19:35:56.659Z,21.30
2022-08-21T19:38:23.725Z,21.20
2022-08-21T19:40:50.723Z,21.20
2022-08-21T19:43:22.493Z,21.20
2022-08-21T19:45:52.824Z,21.20
2022-08-21T19:48:20.287Z,21.10
2022-08-21T19:50:47.258Z,21.10
2022-08-21T19:53:14.153Z,21.00
2022-08-21T19:55:44.928Z,21.00
2022-08-21T19:58:42.406Z,20.90
2022-08-21T20:01:16.369Z,20.90
2022-08-21T20:03:44.835Z,20.90
2022-08-21T20:06:21.163Z,20.80
2022-08-21T20:08:51.595Z,20.70
2022-08-21T20:11:31.338Z,20.70
2022-08-21T20:13:59.021Z,20.60
2022-08-21T20:16:28.012Z,20.60
2022-08-21T20:18:55.375Z,20.60
2022-08-21T20:21:22.469Z,20.50
2022-08-21T20:23:50.243Z,20.40
2022-08-21T20:26:18.714Z,20.40
2022-08-21T20:28:46.032Z,20.30
2022-08-21T20:31:19.620Z,20.30
2022-08-21T20:33:49.470Z,20.30
2022-08-21T20:36:34.972Z,20.20
2022-08-21T20:39:06.899Z,20.10
2022-08-21T20:41:36.315Z,20.10
2022-08-21T20:44:03.944Z,20.10
2022-08-21T20:46:31.621Z,20.00
2022-08-21T20:49:00.933Z,19.90
2022-08-21T20:51:35.801Z,19.80
2022-08-21T20:54:18.062Z,19.70
2022-08-21T20:56:51.145Z,19.70
2022-08-21T20:59:35.119Z,19.70
2022-08-21T21:02:43.036Z,19.80
2022-08-21T21:05:15.065Z,19.70
2022-08-21T21:08:03.402Z,19.70
2022-08-21T21:10:44.779Z,19.70
2022-08-21T21:13:21.828Z,19.70
2022-08-21T21:15:51.510Z,19.70
2022-08-21T21:18:33.111Z,19.60
2022-08-21T21:21:11.440Z,19.60
2022-08-21T21:23:38.367Z,19.60
2022-08-21T21:26:30.744Z,19.50
2022-08-21T21:29:24.763Z,19.50
2022-08-21T21:31:52.731Z,19.40
2022-08-21T21:34:21.657Z,19.40
2022-08-21T21:37:02.737Z,19.40
2022-08-21T21:39:44.720Z,19.40
2022-08-21T21:42:31.399Z,19.40
2022-08-21T21:45:04.370Z,19.30
2022-08-21T21:47:43.746Z,19.20
2022-08-21T21:50:19.757Z,19.20
2022-08-21T21:53:12.849Z,19.20
2022-08-21T21:56:00.227Z,19.10
2022-08-21T21:58:54.620Z,19.10
2022-08-21T22:01:45.454Z,19.00
2022-08-21T22:04:38.366Z,19.00
2022-08-21T22:07:08.129Z,19.00
2022-08-21T22:09:51.152Z,18.90
2022-08-21T22:12:27.995Z,18.80
2022-08-21T22:14:55.211Z,18.70
2022-08-21T22:17:31.135Z,18.70
2022-08-21T22:19:58.377Z,18.70
2022-08-21T22:22:26.422Z,18.80
2022-08-21T22:24:54.388Z,18.80
2022-08-21T22:27:29.059Z,18.90
2022-08-21T22:29:59.560Z,18.80
2022-08-21T22:32:37.674Z,18.80
2022-08-21T22:35:14.189Z,18.90
2022-08-21T22:37:47.728Z,18.70
2022-08-21T22:43:22.454Z,18.30
2022-08-21T22:46:04.281Z,18.10
2022-08-21T22:48:37.340Z,18.00
2022-08-21T22:51:08.019Z,18.10
2022-08-21T22:53:36.709Z,18.20
2022-08-21T22:56:05.291Z,18.20
2022-08-21T22:58:52.839Z,18.30
2022-08-21T23:01:22.867Z,18.30
2022-08-21T23:03:54.425Z,18.40
2022-08-21T23:06:44.832Z,18.40
2022-08-21T23:09:21.084Z,18.20
2022-08-21T23:11:50.870Z,18.00
2022-08-21T23:14:18.671Z,17.80
2022-08-21T23:16:57.906Z,17.60
2022-08-21T23:19:38.140Z,17.60
2022-08-21T23:22:28.382Z,17.70
2022-08-21T23:25:24.592Z,17.70
2022-08-21T23:28:10.791Z,17.60
2022-08-21T23:30:55.460Z,17.40
2022-08-21T23:33:53.671Z,17.20
2022-08-21T23:37:15.327Z,17.00
2022-08-21T23:39:52.015Z,17.00
2022-08-21T23:42:28.574Z,17.00
2022-08-21T23:48:05.135Z,16.90
2022-08-21T23:50:40.826Z,16.90
2022-08-21T23:53:25.996Z,16.90
2022-08-21T23:56:14.782Z,16.90
2022-08-21T23:58:50.830Z,16.80
